Kechi, KS

9:45 AM CST on March 03, 2015 (GMT -0600)
APRSWXNET Wichita KS US | Change Station
CLOSE
Current Station
Personal Weather Station
Location: Wichita, KS
Elevation: 1305 ft
Nearby Weather Stations

Elev 1305 ft 37.76 °N, 97.26 °W | Updated 27 minutes ago

Partly Cloudy
Partly Cloudy
39 °F
Feels Like 39 °F
N
2
Wind Variable Wind from SW
Gusts 6.0 mph

Today
High -- | Low -- °F
--% Chance of Precip.
Yesterday
High -- | Low -- °F
Precip. -- in
6:58 AM 6:24 PM
Waxing Gibbous, 96% visible
Pressure 29.81 in
Visibility 10.0 miles
Clouds Few 1100 ft
Windchill 39 °F
Dew Point 35 °F
Humidity 87%
Rainfall 0.15 in
Snow Depth Not available.
UV 2 out of 12
Pollen 2.80 out of 12
Air Quality Not available.
Flu Activity Not available.
METAR KAAO 031454Z AUTO 22011G22KT 10SM FEW011 04/02 A2977 RMK AO2 PK WND 21027/1441 SLP092 T00390022 53010

More Conditions Fewer Conditions

Pressure 29.81 in
Visibility 10.0 miles
Clouds Few 1100 ft
Windchill 39 °F
Dew Point 35 °F
Humidity 87%
Rainfall 0.15 in
Snow Depth Not available.
UV 2 out of 12
Pollen 2.80 out of 12
Air Quality Not available.
Flu Activity Not available.
METAR KAAO 031454Z AUTO 22011G22KT 10SM FEW011 04/02 A2977 RMK AO2 PK WND 21027/1441 SLP092 T00390022 53010

More Conditions Fewer Conditions

10-Day Weather Forecast

Almanac

Astronomy

Mar. 03, 2015 Rise Set
Actual Time
Civil Twilight
Nautical Twilight
Astronomical Twilight
Moon
Length of Visible Light
Length of Day
Tomorrow will be .
, % of the Moon is Illuminated

Today's Extremes

State Highs State Lows

Community

WunderPhotos

Upload Photos

1,802,149 photos uploaded!

WunderBlogs® & News

Nearby

Air Quality

  Air Quality AQ Index Pollutant
Not available.

Snow Depth

Station Depth Elevation

Earthquake Activity

City Distance Mag. Time & Date
Minimum magnitude displayed is 2.5.

Coastal Water Temperatures

Place Temperature

Nearby Weather Stations